Impacts TAF Board
For situational awareness. Not to be used for flight planning purposes.
IDs:

KDFW - Dallas-Ft Worth Intl, TX, US

Issued at 0803 UTC 16 Oct 2018
Updated at 0846 UTC 16 Oct 2018
Potential Impact None Slight Moderate High
Time<<17/09Z 17/10Z 17/11Z 17/12Z 17/13Z 17/14Z 17/15Z 17/16Z 17/17Z 17/18Z 17/19Z 17/20Z 17/21Z
Type PRVL PRVL PRVL
VIS >6 >6 >6
CIG 15 15 15
Cover OVC OVC OVC
FltCat MVFR MVFR MVFR
WX -SHRA -SHRA -SHRA
WDir 360 360 360
WSpd 15 15 15
WGst -- -- --
Raw TAF
KDFW 160803Z 1608/1712 01014KT 5SM -RA BR BKN008 OVC015
  FM161900 36015KT P6SM -SHRA BKN015 OVC030


METAR Board
Radar Display
Forecast Discussion
For situational awareness. Not to be used for flight planning purposes.